Time;durP1;ratioP1;P1;durP2;ratioP2;P2;SDS_P1;SDS_P2;PMS_P1;PMS_P2;Temp;Humidity;BMP_temperature;BMP_pressure;BME280_temperature;BME280_humidity;BME280_pressure;Samples;Min_cycle;Max_cycle;Signal;HPM_P1;HPM_P2
2023/10/30 09:37:53;;;;;;;;;4.25;4.25;;;;;;;;5106396;27;13440;-73
2023/10/30 09:40:19;;;;;;;;;4.00;4.00;;;;;;;;5087916;28;10046;-73
2023/10/30 09:42:53;;;;;;;;;6.50;4.50;;;;;;;;5087964;28;8787;-73
2023/10/30 09:45:26;;;;;;;;;4.75;4.75;;;;;;;;5087896;28;9626;-73
2023/10/30 09:47:52;;;;;;;;;6.50;4.75;;;;;;;;5087931;28;9677;-73
2023/10/30 09:50:17;;;;;;;;;5.00;4.00;;;;;;;;5087905;28;9696;-73
2023/10/30 09:52:44;;;;;;;;;4.00;4.00;;;;;;;;5087660;28;9481;-73
2023/10/30 09:55:11;;;;;;;;;7.25;5.50;;;;;;;;5087667;28;8867;-72
2023/10/30 09:57:37;;;;;;;;;7.50;5.50;;;;;;;;5087699;28;9436;-73
2023/10/30 10:00:04;;;;;;;;;5.00;3.00;;;;;;;;5088435;28;9534;-73
2023/10/30 10:02:30;;;;;;;;;4.67;4.00;;;;;;;;5085507;28;8911;-72
2023/10/30 10:04:56;;;;;;;;;3.00;3.00;;;;;;;;5087259;28;9510;-73
2023/10/30 10:07:21;;;;;;;;;6.50;5.00;;;;;;;;5089682;28;8787;-74
2023/10/30 10:09:56;;;;;;;;;5.00;5.00;;;;;;;;5087868;28;9366;-74
2023/10/30 10:12:21;;;;;;;;;4.00;4.00;;;;;;;;5086482;28;8875;-79
2023/10/30 10:14:46;;;;;;;;;5.25;5.25;;;;;;;;5087036;28;9351;-74
2023/10/30 10:17:12;;;;;;;;;5.00;5.00;;;;;;;;5086803;28;8822;-74
2023/10/30 10:19:45;;;;;;;;;6.00;4.00;;;;;;;;5087052;28;8787;-75
2023/10/30 10:22:10;;;;;;;;;4.00;4.00;;;;;;;;5087038;28;8782;-72
2023/10/30 10:24:38;;;;;;;;;8.00;8.00;;;;;;;;5085572;28;9401;-76
2023/10/30 10:27:04;;;;;;;;;5.67;5.67;;;;;;;;5086996;28;8770;-75
2023/10/30 10:29:33;;;;;;;;;10.67;5.67;;;;;;;;5085726;28;9363;-75
2023/10/30 10:31:58;;;;;;;;;5.33;4.00;;;;;;;;5086730;28;8815;-76
2023/10/30 10:34:23;;;;;;;;;20.75;18.25;;;;;;;;5086812;28;9409;-75
2023/10/30 10:36:49;;;;;;;;;4.67;4.67;;;;;;;;5086560;28;8802;-74
2023/10/30 10:39:14;;;;;;;;;7.50;6.00;;;;;;;;5087307;28;9614;-73
2023/10/30 10:41:41;;;;;;;;;6.75;5.50;;;;;;;;5103092;28;8814;-73
2023/10/30 10:44:08;;;;;;;;;40.75;34.00;;;;;;;;5086861;28;8896;-73
2023/10/30 10:46:34;;;;;;;;;57.50;45.25;;;;;;;;5085486;28;11923;-73
2023/10/30 10:48:59;;;;;;;;;57.50;46.75;;;;;;;;5072871;28;11465;-72
2023/10/30 10:51:33;;;;;;;;;25.25;21.75;;;;;;;;5072995;28;8786;-73
2023/10/30 10:54:03;;;;;;;;;100.67;89.67;;;;;;;;5073135;28;8766;-71
2023/10/30 10:56:29;;;;;;;;;13.50;5.00;;;;;;;;5072892;28;8802;-72
2023/10/30 10:59:00;;;;;;;;;34.75;29.25;;;;;;;;5072851;28;10080;-72
2023/10/30 11:01:29;;;;;;;;;13.50;12.50;;;;;;;;5072222;28;10446;-72
2023/10/30 11:03:54;;;;;;;;;10.00;9.00;;;;;;;;5073098;28;9558;-73
2023/10/30 11:06:22;;;;;;;;;8.75;8.75;;;;;;;;5072696;28;9570;-73
2023/10/30 11:08:54;;;;;;;;;9.25;8.50;;;;;;;;5072811;28;8775;-74
2023/10/30 11:11:32;;;;;;;;;7.75;6.50;;;;;;;;5073966;28;9507;-73
2023/10/30 11:14:07;;;;;;;;;9.50;8.25;;;;;;;;5088385;28;9463;-74
2023/10/30 11:16:43;;;;;;;;;9.00;9.00;;;;;;;;4980118;28;10933;-77
2023/10/30 11:19:09;;;;;;;;;9.33;8.00;;;;;;;;5011634;28;9380;-74
2023/10/30 11:21:35;;;;;;;;;6.33;5.33;;;;;;;;5010575;28;9440;-76
2023/10/30 11:24:00;;;;;;;;;11.33;6.00;;;;;;;;5026946;28;8811;-76
2023/10/30 11:26:29;;;;;;;;;9.00;6.75;;;;;;;;5012575;28;8838;-74
2023/10/30 11:28:54;;;;;;;;;9.33;6.00;;;;;;;;5012745;28;8799;-76
2023/10/30 11:31:19;;;;;;;;;7.00;6.00;;;;;;;;5012062;28;9494;-77
2023/10/30 11:33:44;;;;;;;;;6.00;5.00;;;;;;;;5012686;28;8794;-71
2023/10/30 11:36:16;;;;;;;;;5.00;5.00;;;;;;;;5011556;28;8932;-72
2023/10/30 11:38:59;;;;;;;;;5.00;4.33;;;;;;;;4991555;28;9629;-77
2023/10/30 11:41:25;;;;;;;;;9.00;6.00;;;;;;;;4992815;28;9280;-73
2023/10/30 11:43:50;;;;;;;;;5.00;5.00;;;;;;;;4991640;28;10236;-78
2023/10/30 11:46:21;;;;;;;;;4.25;4.25;;;;;;;;4991119;28;8824;-77
2023/10/30 11:48:46;;;;;;;;;10.00;5.50;;;;;;;;4992716;28;8920;-77
2023/10/30 11:51:12;;;;;;;;;5.00;5.00;;;;;;;;4991207;28;9564;-73
2023/10/30 11:53:41;;;;;;;;;11.75;10.25;;;;;;;;4991427;28;8809;-73
2023/10/30 11:56:07;;;;;;;;;5.00;5.00;;;;;;;;4993566;28;8825;-72
2023/10/30 11:58:33;;;;;;;;;4.00;3.33;;;;;;;;5005263;28;10285;-73
2023/10/30 12:00:59;;;;;;;;;5.00;4.00;;;;;;;;5010754;28;9715;-72
2023/10/30 12:03:24;;;;;;;;;6.00;5.00;;;;;;;;5012194;28;8783;-75
2023/10/30 12:05:50;;;;;;;;;5.67;5.67;;;;;;;;5012038;28;9542;-73
2023/10/30 12:08:16;;;;;;;;;8.75;7.50;;;;;;;;5011787;28;8802;-74
2023/10/30 12:10:43;;;;;;;;;2.33;2.33;;;;;;;;5011929;28;9579;-71
2023/10/30 12:13:09;;;;;;;;;3.00;2.00;;;;;;;;5011600;28;11076;-72
2023/10/30 12:15:34;;;;;;;;;3.67;3.67;;;;;;;;5011456;28;9308;-70
2023/10/30 12:18:00;;;;;;;;;4.33;3.00;;;;;;;;5011544;28;9271;-71
2023/10/30 12:20:25;;;;;;;;;5.67;3.00;;;;;;;;5011574;28;8811;-71
2023/10/30 12:22:53;;;;;;;;;2.00;2.00;;;;;;;;5009722;28;8818;-69
2023/10/30 12:25:19;;;;;;;;;2.33;2.00;;;;;;;;5011116;28;8832;-72
2023/10/30 12:27:45;;;;;;;;;2.00;2.00;;;;;;;;5011494;28;9207;-71
2023/10/30 12:30:11;;;;;;;;;6.00;3.00;;;;;;;;5010876;28;8803;-71
2023/10/30 12:32:37;;;;;;;;;3.00;3.00;;;;;;;;5009330;28;8807;-70
2023/10/30 12:35:12;;;;;;;;;4.33;2.00;;;;;;;;5011292;28;9279;-72
2023/10/30 12:37:38;;;;;;;;;3.00;3.00;;;;;;;;5010804;28;8863;-70
2023/10/30 12:40:04;;;;;;;;;3.33;2.33;;;;;;;;5011489;28;9249;-72
2023/10/30 12:42:40;;;;;;;;;7.75;7.00;;;;;;;;5011090;28;9630;-72
2023/10/30 12:45:06;;;;;;;;;4.33;4.33;;;;;;;;5010814;28;10135;-68
2023/10/30 12:47:32;;;;;;;;;5.67;4.00;;;;;;;;5009140;28;9230;-69
2023/10/30 12:49:57;;;;;;;;;3.00;3.00;;;;;;;;5011335;28;9205;-70
2023/10/30 12:52:22;;;;;;;;;3.00;3.00;;;;;;;;5011099;28;8895;-71
2023/10/30 12:54:47;;;;;;;;;5.25;3.00;;;;;;;;5011084;28;8900;-69
2023/10/30 12:57:13;;;;;;;;;3.67;3.67;;;;;;;;5010389;28;8869;-70
2023/10/30 12:59:38;;;;;;;;;3.33;3.00;;;;;;;;5011046;28;8892;-70
2023/10/30 13:02:03;;;;;;;;;4.67;4.67;;;;;;;;5010736;28;8794;-70
2023/10/30 13:04:28;;;;;;;;;4.50;4.50;;;;;;;;5011145;28;8786;-69
2023/10/30 13:06:54;;;;;;;;;6.00;4.33;;;;;;;;5011012;28;8826;-77
2023/10/30 13:09:19;;;;;;;;;7.50;5.75;;;;;;;;5010559;28;8802;-74
2023/10/30 13:11:44;;;;;;;;;6.00;5.00;;;;;;;;5009065;28;8838;-72
2023/10/30 13:14:10;;;;;;;;;5.25;5.25;;;;;;;;5010085;28;8894;-71
2023/10/30 13:16:35;;;;;;;;;6.00;3.75;;;;;;;;5009749;28;8842;-71
2023/10/30 13:19:00;;;;;;;;;6.75;4.00;;;;;;;;5010015;28;8791;-71
2023/10/30 13:21:25;;;;;;;;;6.75;4.75;;;;;;;;5010072;28;8823;-72
2023/10/30 13:23:51;;;;;;;;;6.00;6.00;;;;;;;;5010245;28;8787;-71
2023/10/30 13:26:17;;;;;;;;;5.00;5.00;;;;;;;;5008287;28;8845;-70
2023/10/30 13:28:43;;;;;;;;;4.50;3.50;;;;;;;;5009185;28;8830;-68
2023/10/30 13:31:08;;;;;;;;;5.00;4.25;;;;;;;;5010303;28;10452;-69
2023/10/30 13:33:33;;;;;;;;;3.25;2.00;;;;;;;;5010744;28;8802;-68
2023/10/30 13:35:59;;;;;;;;;6.25;4.00;;;;;;;;5009406;28;8969;-69
2023/10/30 13:38:24;;;;;;;;;7.00;3.50;;;;;;;;5010539;28;8794;-70
2023/10/30 13:40:51;;;;;;;;;4.25;4.25;;;;;;;;5010427;28;8826;-70
2023/10/30 13:43:16;;;;;;;;;10.50;7.75;;;;;;;;5010591;28;8783;-72
2023/10/30 13:45:42;;;;;;;;;7.25;5.50;;;;;;;;5010319;28;9732;-70
2023/10/30 13:48:07;;;;;;;;;5.75;5.00;;;;;;;;5010338;28;8913;-69
2023/10/30 13:50:32;;;;;;;;;5.67;5.67;;;;;;;;5010666;28;8837;-70
2023/10/30 13:52:58;;;;;;;;;8.00;5.33;;;;;;;;5010345;28;8806;-70
2023/10/30 13:55:23;;;;;;;;;10.67;5.67;;;;;;;;5010406;28;8803;-70
2023/10/30 13:57:49;;;;;;;;;8.00;7.00;;;;;;;;5009194;28;8850;-70
2023/10/30 14:00:14;;;;;;;;;7.25;4.00;;;;;;;;5009867;28;8818;-70
2023/10/30 14:02:39;;;;;;;;;4.00;3.25;;;;;;;;5010057;28;9517;-69
2023/10/30 14:05:05;;;;;;;;;5.50;5.50;;;;;;;;5010524;28;8810;-70
2023/10/30 14:07:30;;;;;;;;;6.67;6.67;;;;;;;;5009644;28;9020;-70
2023/10/30 14:09:56;;;;;;;;;6.75;6.75;;;;;;;;5008567;28;8819;-70
2023/10/30 14:12:21;;;;;;;;;9.67;6.33;;;;;;;;5009738;28;8814;-71
2023/10/30 14:14:46;;;;;;;;;3.33;3.33;;;;;;;;5009976;28;8814;-70
2023/10/30 14:17:12;;;;;;;;;4.00;4.00;;;;;;;;5009597;28;9565;-71
2023/10/30 14:19:37;;;;;;;;;6.33;3.67;;;;;;;;5008093;28;8807;-70
2023/10/30 14:22:03;;;;;;;;;4.67;4.00;;;;;;;;5009552;28;8896;-70
2023/10/30 14:24:28;;;;;;;;;4.00;4.00;;;;;;;;5013302;28;8892;-72
2023/10/30 14:26:53;;;;;;;;;4.75;4.00;;;;;;;;5013471;28;8798;-72
2023/10/30 14:29:18;;;;;;;;;6.00;6.00;;;;;;;;5011679;28;8818;-71
2023/10/30 14:31:44;;;;;;;;;7.67;6.67;;;;;;;;5012892;28;8845;-72
2023/10/30 14:34:09;;;;;;;;;7.00;6.00;;;;;;;;5011987;28;8814;-72
2023/10/30 14:36:34;;;;;;;;;7.67;5.00;;;;;;;;5013164;28;8948;-71
2023/10/30 14:39:00;;;;;;;;;5.33;5.33;;;;;;;;5012964;28;8798;-71
2023/10/30 14:41:26;;;;;;;;;6.00;5.00;;;;;;;;5012600;28;8900;-71
2023/10/30 14:43:51;;;;;;;;;12.33;7.00;;;;;;;;5010270;28;8832;-71
2023/10/30 14:46:17;;;;;;;;;9.00;5.00;;;;;;;;5014393;28;9499;-73
2023/10/30 14:48:43;;;;;;;;;6.75;6.75;;;;;;;;5012904;28;8802;-73
2023/10/30 14:51:08;;;;;;;;;5.00;5.00;;;;;;;;5012855;28;8831;-72
2023/10/30 14:53:33;;;;;;;;;5.67;5.00;;;;;;;;5012140;28;8821;-72
2023/10/30 14:55:58;;;;;;;;;6.67;4.67;;;;;;;;5013479;28;8822;-71
2023/10/30 14:58:24;;;;;;;;;6.75;5.00;;;;;;;;5013195;28;8817;-70
2023/10/30 15:00:49;;;;;;;;;2.00;2.00;;;;;;;;5011710;28;8916;-70
2023/10/30 15:03:14;;;;;;;;;4.00;4.00;;;;;;;;5013474;28;8836;-71
2023/10/30 15:05:40;;;;;;;;;6.00;5.00;;;;;;;;5013132;28;8905;-69
2023/10/30 15:08:05;;;;;;;;;4.67;4.33;;;;;;;;5011973;28;8905;-76
2023/10/30 15:10:30;;;;;;;;;3.67;3.00;;;;;;;;5013100;28;8811;-77
2023/10/30 15:12:57;;;;;;;;;4.00;3.00;;;;;;;;5012615;28;8892;-77
2023/10/30 15:15:23;;;;;;;;;5.75;4.25;;;;;;;;5012953;28;9188;-77
2023/10/30 15:17:48;;;;;;;;;5.33;5.00;;;;;;;;5012988;28;9471;-77
2023/10/30 15:20:14;;;;;;;;;3.33;2.00;;;;;;;;5011546;28;11481;-78
2023/10/30 15:22:39;;;;;;;;;3.50;3.50;;;;;;;;5012755;28;8992;-78
2023/10/30 15:25:05;;;;;;;;;9.25;5.00;;;;;;;;5012601;28;8842;-75
2023/10/30 15:27:33;;;;;;;;;11.00;6.00;;;;;;;;5012631;28;8826;-78
2023/10/30 15:29:58;;;;;;;;;9.67;6.00;;;;;;;;5012507;28;8804;-78
2023/10/30 15:32:24;;;;;;;;;8.33;7.67;;;;;;;;5012454;28;9292;-78
2023/10/30 15:34:49;;;;;;;;;5.67;5.00;;;;;;;;5027498;28;8869;-76
2023/10/30 15:37:14;;;;;;;;;10.00;4.00;;;;;;;;5011259;28;8858;-79
2023/10/30 15:39:40;;;;;;;;;3.67;3.00;;;;;;;;5010107;28;9707;-77
2023/10/30 15:42:05;;;;;;;;;3.00;3.00;;;;;;;;5011481;28;8900;-78
2023/10/30 15:44:30;;;;;;;;;3.25;3.25;;;;;;;;5012693;28;9552;-71
2023/10/30 15:46:56;;;;;;;;;4.33;4.33;;;;;;;;5012578;28;8822;-76
2023/10/30 15:49:21;;;;;;;;;4.00;4.00;;;;;;;;5012840;28;9527;-76
2023/10/30 15:51:46;;;;;;;;;3.33;3.33;;;;;;;;5012199;28;8849;-82
2023/10/30 15:54:12;;;;;;;;;3.00;2.00;;;;;;;;5012636;28;8798;-76
2023/10/30 15:56:37;;;;;;;;;4.00;3.67;;;;;;;;5012391;28;8944;-75
2023/10/30 15:59:02;;;;;;;;;6.00;4.00;;;;;;;;5012647;28;8819;-74
2023/10/30 16:01:28;;;;;;;;;3.00;2.33;;;;;;;;5010907;28;8945;-77
2023/10/30 16:03:54;;;;;;;;;4.25;4.25;;;;;;;;5012150;28;8822;-75
2023/10/30 16:06:20;;;;;;;;;3.67;3.67;;;;;;;;5011714;28;8814;-75
2023/10/30 16:08:45;;;;;;;;;6.67;3.00;;;;;;;;5011944;28;9431;-74
2023/10/30 16:11:10;;;;;;;;;5.00;4.00;;;;;;;;5012616;28;8875;-75
2023/10/30 16:13:36;;;;;;;;;4.00;3.00;;;;;;;;5011697;28;8806;-75
2023/10/30 16:16:02;;;;;;;;;3.67;3.00;;;;;;;;5011726;28;8798;-75
2023/10/30 16:18:27;;;;;;;;;3.00;3.00;;;;;;;;5012042;28;9750;-76
2023/10/30 16:20:53;;;;;;;;;4.00;3.00;;;;;;;;5011900;28;9341;-76
2023/10/30 16:23:18;;;;;;;;;5.00;5.00;;;;;;;;5011856;28;8799;-76
2023/10/30 16:25:43;;;;;;;;;4.67;4.67;;;;;;;;5011865;28;8832;-76
2023/10/30 16:28:09;;;;;;;;;4.00;3.67;;;;;;;;5011614;28;8811;-75
2023/10/30 16:30:34;;;;;;;;;5.00;4.00;;;;;;;;5011715;28;8807;-76
2023/10/30 16:32:59;;;;;;;;;4.00;2.00;;;;;;;;5011452;28;8829;-75
2023/10/30 16:35:24;;;;;;;;;5.25;3.75;;;;;;;;5011596;28;8782;-76
2023/10/30 16:37:50;;;;;;;;;4.00;4.00;;;;;;;;5011476;28;8826;-76
2023/10/30 16:40:15;;;;;;;;;3.67;2.33;;;;;;;;5010194;28;8945;-76
2023/10/30 16:42:40;;;;;;;;;4.67;3.67;;;;;;;;5011302;28;9631;-76
2023/10/30 16:45:07;;;;;;;;;3.00;3.00;;;;;;;;5011266;28;8893;-76
2023/10/30 16:47:32;;;;;;;;;3.00;2.67;;;;;;;;5011014;28;8810;-76
2023/10/30 16:49:58;;;;;;;;;5.67;4.00;;;;;;;;5026450;28;9366;-75
2023/10/30 16:52:23;;;;;;;;;3.00;3.00;;;;;;;;5026504;28;8838;-76
2023/10/30 16:54:48;;;;;;;;;5.00;4.00;;;;;;;;5011314;28;8810;-76
2023/10/30 16:57:13;;;;;;;;;5.25;4.50;;;;;;;;5011067;28;8814;-75
2023/10/30 16:59:39;;;;;;;;;5.00;3.00;;;;;;;;5013015;28;8872;-76
2023/10/30 17:02:05;;;;;;;;;3.25;3.00;;;;;;;;5006420;28;8875;-76
2023/10/30 17:04:31;;;;;;;;;4.75;4.00;;;;;;;;4990330;28;8909;-76
2023/10/30 17:06:56;;;;;;;;;4.00;4.00;;;;;;;;4995304;28;11571;-75
2023/10/30 17:09:22;;;;;;;;;10.25;8.50;;;;;;;;5010608;28;8837;-76
2023/10/30 17:11:47;;;;;;;;;13.00;13.00;;;;;;;;5010804;28;8829;-76
2023/10/30 17:14:14;;;;;;;;;5.75;5.25;;;;;;;;5010788;28;8977;-76
2023/10/30 17:16:40;;;;;;;;;4.33;4.33;;;;;;;;5010783;28;9549;-77
2023/10/30 17:19:05;;;;;;;;;2.00;2.00;;;;;;;;5010987;28;9351;-75
2023/10/30 17:21:30;;;;;;;;;8.50;7.25;;;;;;;;5009926;28;8868;-76
2023/10/30 17:23:56;;;;;;;;;4.00;3.25;;;;;;;;5010423;28;9544;-76
2023/10/30 17:26:21;;;;;;;;;4.25;4.25;;;;;;;;5010114;28;8959;-78
2023/10/30 17:28:46;;;;;;;;;3.50;3.00;;;;;;;;5010704;28;8807;-76
2023/10/30 17:31:11;;;;;;;;;3.00;3.00;;;;;;;;5010034;28;8794;-76
2023/10/30 17:33:37;;;;;;;;;6.00;3.00;;;;;;;;5015754;28;8798;-77
2023/10/30 17:36:02;;;;;;;;;2.00;2.00;;;;;;;;5012008;28;8846;-76
2023/10/30 17:38:27;;;;;;;;;4.50;3.00;;;;;;;;5010178;28;8794;-77
2023/10/30 17:40:53;;;;;;;;;3.50;3.50;;;;;;;;5009745;28;8810;-79
2023/10/30 17:43:18;;;;;;;;;3.00;3.00;;;;;;;;5009789;28;8775;-78
2023/10/30 17:45:43;;;;;;;;;4.75;2.00;;;;;;;;5010028;28;8811;-78
2023/10/30 17:48:09;;;;;;;;;5.75;3.25;;;;;;;;5009824;28;8900;-78
2023/10/30 17:50:34;;;;;;;;;11.25;8.75;;;;;;;;5008854;28;8795;-78
2023/10/30 17:52:59;;;;;;;;;5.25;5.00;;;;;;;;5009873;28;8810;-78
2023/10/30 17:55:25;;;;;;;;;3.75;3.75;;;;;;;;5009733;28;8815;-78
2023/10/30 17:57:50;;;;;;;;;7.25;4.00;;;;;;;;5010344;28;8834;-76
2023/10/30 18:00:16;;;;;;;;;7.75;4.00;;;;;;;;5016013;28;8905;-77
2023/10/30 18:02:41;;;;;;;;;4.25;4.00;;;;;;;;5011928;28;9562;-76
2023/10/30 18:05:06;;;;;;;;;3.25;3.25;;;;;;;;5013913;28;8929;-75
2023/10/30 18:07:32;;;;;;;;;4.50;3.50;;;;;;;;5014290;28;8818;-74
2023/10/30 18:09:58;;;;;;;;;8.00;5.00;;;;;;;;5014386;28;8903;-75
2023/10/30 18:12:24;;;;;;;;;9.25;4.50;;;;;;;;5012367;28;9608;-74
2023/10/30 18:14:49;;;;;;;;;5.00;4.00;;;;;;;;5014034;28;9910;-81
2023/10/30 18:17:14;;;;;;;;;8.50;5.75;;;;;;;;5013948;28;8834;-75
2023/10/30 18:19:40;;;;;;;;;2.75;2.75;;;;;;;;5014443;28;8783;-77
2023/10/30 18:22:05;;;;;;;;;6.00;4.00;;;;;;;;5013873;28;8794;-74
2023/10/30 18:24:30;;;;;;;;;4.00;2.75;;;;;;;;5014228;28;8786;-76
2023/10/30 18:26:57;;;;;;;;;5.00;4.00;;;;;;;;5013695;28;8826;-76
2023/10/30 18:29:23;;;;;;;;;8.25;4.00;;;;;;;;5014067;28;8795;-75
2023/10/30 18:31:50;;;;;;;;;10.00;8.00;;;;;;;;5015633;28;9726;-77
2023/10/30 18:34:15;;;;;;;;;3.25;3.00;;;;;;;;5013702;28;8802;-76
